Airfield :
LOGIN :

Register | Disclaimer

   EN    FR    IT 

 










Legend :    VFR   Marginal VFR   IFR   Intensive IFR   Very Intensive IFR
Visi :
Ceiling :
>= 8 km
>= 3000ft
5 to 8 km
1000 to 3000 ft
1500m to 5 km
500 to 1000 ft
800 to 1500m
200 to 500 ft
< 800m
< 200 ft
Symbols :   Thunderstorms  Fog  Heavy snow  Heavy precipitations  Wind > 20 kt
SIGMETs :     Misc.  Thunderstorms  Icing  Turbulence  Mountain Waves  Volcanic Ashes







- Airport Elevation : 13 ft
- IATA code : OST


EBOS - Oostend bruges Int.

CURRENT METAR :
  • 200820Z 04006KT CAVOK 17/09 Q1029 NOSIG

EXPIRED METARs :
  • 200750Z 02006KT CAVOK 16/09 Q1029 NOSIG
  • 200720Z 03005KT 350V070 CAVOK 16/08 Q1029 NOSIG
  • 200650Z 08006KT CAVOK 15/07 Q1029 NOSIG
  • 200620Z 07004KT 040V100 CAVOK 13/08 Q1029 NOSIG
  • 200550Z 05003KT 020V080 CAVOK 12/08 Q1029 NOSIG

TAF TAF EBOS
Valid from the 20 at 06:00 until the 21 at 12:00 UTC


200510Z 2006/2112 06005KT CAVOK
No reported NOTAMs for that airfield.



MET'MAP, your aeronautical weather chart ! - Copyright ORBIFLY December 2007 - Disclaimer

ORBIFLY MET'MAP TEAM :

Programming & Development : Alexandra Zaïnal
Concept & Development : Baudouin d'Aumeries
Co-Development & Prog : Marc-Olivier Méhu
Technical & hardware support : Manuel Goepfert

Contact : metmap@orbifly.com




SOURCES & CREDITS :

   NOAA